»·PEaware :: N7DJ KSAN-KPRC

N7DJ :: KSAN-KPRC

FLIGHT INFORMATION

Flight Status: Arrived
Operator: Privately registered:
United States
More flights under this callsign
Pilot: Don J. (45483)
Aircraft: CANADAIR CL-600 CHALLENGER
(CL60)
More flights by this aircraft type
Origin: KSAN San Diego Intl-Lindbergh
United States
Destination: KPRC Love
United States
More flights between these airports :: More routes between these airports
Route: ZZOOO3 MTBAL LANCY J96 DRK CRADI
File this flight plan on PilotEdge
Remarks: RMK / SIMBRIEF
Altitude:
(Current/Filed)
35,000ft
Speed:
(Current/Filed)
464kts
Departed: 15-Nov-23 11:30 AM
Arrived: 15-Nov-23 12:20 PM
Distance/Time
Traveled:
264nm/0:50
Distance/Time
To Go:
Arrived

Flight Plot

Page will automatically refresh every two minutes.

Flight plan parsing failed; only flown route is shown


Map Options




Map Legend


Flown Route
Filed Route
Departure Airport
Arrival Airport
Navaid (VOR, NDB)
Fix

Horizontal Profiles

Position Reports

Time Latitude Longitude Heading Altitude Ground
Speed
15-Nov-23 11:00 32.733948 -117.179156 17 24ft 0kts
15-Nov-23 11:01 32.733948 -117.179156 17 24ft 0kts
15-Nov-23 11:02 32.733948 -117.179156 17 24ft 0kts
15-Nov-23 11:03 32.733948 -117.179156 17 24ft 0kts
15-Nov-23 11:04 32.733948 -117.179156 17 24ft 0kts
15-Nov-23 11:05 32.733948 -117.179156 17 24ft 0kts
15-Nov-23 11:06 32.733948 -117.179156 17 24ft 0kts
15-Nov-23 11:07 32.733948 -117.179156 17 24ft 0kts
15-Nov-23 11:08 32.733948 -117.179156 17 24ft 0kts
15-Nov-23 11:09 32.733948 -117.179156 17 24ft 0kts
15-Nov-23 11:10 32.733948 -117.179156 17 24ft 0kts
15-Nov-23 11:11 32.733948 -117.179156 17 24ft 0kts
15-Nov-23 11:12 32.733948 -117.179156 17 24ft 0kts
15-Nov-23 11:13 32.733948 -117.179156 17 24ft 0kts
15-Nov-23 11:14 32.733948 -117.179156 17 24ft 0kts
15-Nov-23 11:15 32.733948 -117.179156 17 24ft 0kts
15-Nov-23 11:16 32.733948 -117.179156 17 24ft 0kts
15-Nov-23 11:17 32.733948 -117.179156 17 24ft 0kts
15-Nov-23 11:18 32.733948 -117.179156 17 24ft 0kts
15-Nov-23 11:19 32.733949 -117.179156 17 24ft 0kts
15-Nov-23 11:20 32.733949 -117.179156 17 24ft 0kts
15-Nov-23 11:21 32.733949 -117.179156 17 24ft 0kts
15-Nov-23 11:22 32.733949 -117.179156 17 24ft 0kts
15-Nov-23 11:23 32.733949 -117.179156 17 24ft 0kts
15-Nov-23 11:24 32.733673 -117.179522 190 24ft 7kts
15-Nov-23 11:25 32.732104 -117.178887 104 24ft 12kts
15-Nov-23 11:26 32.731071 -117.175658 144 24ft 0kts
15-Nov-23 11:27 32.731071 -117.175658 144 24ft 0kts
15-Nov-23 11:28 32.730914 -117.175523 143 24ft 10kts
15-Nov-23 11:29 32.731799 -117.182331 286 24ft 114kts
15-Nov-23 11:30 32.745283 -117.240968 286 2689ft 216kts
15-Nov-23 11:31 32.762425 -117.311221 281 5386ft 229kts
15-Nov-23 11:32 32.736545 -117.355252 165 8519ft 214kts
15-Nov-23 11:33 32.686580 -117.305212 147 12583ft 249kts
15-Nov-23 11:34 32.634747 -117.245948 129 16153ft 297kts
15-Nov-23 11:35 32.620403 -117.130761 103 18219ft 381kts
15-Nov-23 11:36 32.609499 -117.005130 103 20299ft 390kts
15-Nov-23 11:37 32.610138 -116.873164 81 22407ft 420kts
15-Nov-23 11:38 32.671838 -116.754465 27 23899ft 443kts
15-Nov-23 11:39 32.785827 -116.697354 19 25787ft 455kts
15-Nov-23 11:40 32.905363 -116.638835 18 27505ft 470kts
15-Nov-23 11:41 33.028212 -116.578097 20 29159ft 485kts
15-Nov-23 11:42 33.154256 -116.512186 20 30671ft 499kts
15-Nov-23 11:43 33.283877 -116.444210 20 32163ft 512kts
15-Nov-23 11:44 33.407919 -116.355261 41 33537ft 530kts
15-Nov-23 11:45 33.500131 -116.215310 57 34437ft 539kts
15-Nov-23 11:46 33.586815 -116.070114 57 35242ft 531kts
15-Nov-23 11:47 33.650122 -115.908988 71 35238ft 538kts
15-Nov-23 11:48 33.708172 -115.742708 70 35270ft 541kts
15-Nov-23 11:49 33.766210 -115.575552 69 35228ft 540kts
15-Nov-23 11:50 33.823771 -115.408887 70 35223ft 539kts
15-Nov-23 11:51 33.881334 -115.241305 70 35216ft 539kts
15-Nov-23 11:52 33.938648 -115.073561 70 35225ft 539kts
15-Nov-23 11:53 33.995470 -114.906362 71 35228ft 539kts
15-Nov-23 11:54 34.052143 -114.738692 70 35233ft 540kts
15-Nov-23 11:55 34.108891 -114.569901 70 35241ft 541kts
15-Nov-23 11:56 34.165176 -114.401588 70 35237ft 540kts
15-Nov-23 11:57 34.221402 -114.232496 70 35221ft 541kts
15-Nov-23 11:58 34.276373 -114.062660 73 35220ft 540kts
15-Nov-23 11:59 34.324061 -113.889728 73 35242ft 542kts
15-Nov-23 12:00 34.371624 -113.716507 74 35245ft 542kts
15-Nov-23 12:01 34.419145 -113.542453 73 34181ft 547kts
15-Nov-23 12:02 34.466596 -113.367683 72 32032ft 547kts
15-Nov-23 12:03 34.513410 -113.194244 73 29117ft 527kts
15-Nov-23 12:04 34.556858 -113.032358 73 26104ft 491kts
15-Nov-23 12:05 34.597865 -112.878611 73 23151ft 465kts
15-Nov-23 12:06 34.636416 -112.733214 72 20441ft 432kts
15-Nov-23 12:07 34.670190 -112.605260 73 20685ft 349kts
15-Nov-23 12:08 34.697165 -112.502392 73 20060ft 305kts
15-Nov-23 12:09 34.755715 -112.444381 7 18483ft 283kts
15-Nov-23 12:10 34.821752 -112.473738 318 16775ft 257kts
15-Nov-23 12:11 34.880087 -112.522115 318 14860ft 251kts
15-Nov-23 12:12 34.920825 -112.580112 251 12471ft 222kts
15-Nov-23 12:13 34.869127 -112.588007 159 10090ft 220kts
15-Nov-23 12:14 34.817143 -112.564183 159 8305ft 187kts
15-Nov-23 12:15 34.767760 -112.540889 159 8152ft 191kts
15-Nov-23 12:16 34.721671 -112.509525 134 6602ft 188kts
15-Nov-23 12:17 34.687273 -112.470401 145 5936ft 157kts
15-Nov-23 12:18 34.657230 -112.432916 137 5300ft 144kts
15-Nov-23 12:19 34.644565 -112.418601 135 5041ft 18kts
15-Nov-23 12:20 34.644807 -112.419789 316 5041ft 13kts
15-Nov-23 12:21 34.647388 -112.422714 315 5025ft 5kts
15-Nov-23 12:22 34.646732 -112.423488 218 5027ft 0kts
15-Nov-23 12:23 34.646732 -112.423488 218 5027ft 0kts

Navigation Log

Ident Type
Flight plan parsing failed, navigation log unavailable